Αρχική σελίδα
METAR-TAF:

METAR-TAF

Αεροδρόμια :

Ταράουα, Κιριμπάτι

γεωγραφικό πλάτος: 01-21N, γεωγραφικό μήκος: 172-55E, υψόμετρο: 2 μ

Παρών καιρός

Η αναφορά έγινε 49 λεπτά πριν, στις 04:00 UTC
Άνεμος 6 kt από Ν/NA
Θερμοκρασία 31°C
Υγρασία 63%
Πίεση 1007 hPa
Ορατότητα 10 χλμ και άνω
Διάσπαρτα νέφη σε ύψος 1900 πόδια

METAR: NGTA 230400Z 16006KT 9999 SCT019 31/23 Q1007

Χρόνος: 18:49 (04:49 UTC)

Πρόγνωση Καιρού

Η αναφορά έγινε 5 ώρες και 40 λεπτά πριν, στις 23:09 UTC
Η πρόγνωση ισχύει από τις 23 στις 00 UTC έως τις 23 στις 24 UTC
Άνεμος 8 kt από Ν/NA
Ορατότητα 10 χλμ και άνω
Λίγα νέφη σε ύψος 2000 πόδια

TAF: NGTA 222309Z 2300/2324 15008KT 9999 FEW020

Μετεωρολογικές αναφορές και προγνώσεις για περισσότερα από 4000 αεροδρόμια (δελτία METAR και TAF).

Οι διαθέσιμοι σταθμοί απεικονίζονται στο χάρτη με κίτρινες και κόκκινες κουκκίδες.

Μετακινήστε το ποντίκι πάνω από τις κουκκίδες για να δείτε το όνομα του σταθμού.

Στη συνέχεια, κάντε κλικ για να δείτε τις μετεωρολογικές αναφορές και τις προγνώσεις καιρού.

Για να αλλάξετε το χάρτη: κάντε κλικ στα πράσινα κουμπιά με τον μαύρο σταυρό για να ζουμάρετε, στο πράσινο κουμπί με την παύλα για να αφαιρέσετε το ζουμ ή στα πράσινα βέλη για να αντιπαραβάλλετε χάρτες.


METAR-TAF: